Time;durP1;ratioP1;P1;durP2;ratioP2;P2;SDS_P1;SDS_P2;PMS_P1;PMS_P2;Temp;Humidity;BMP_temperature;BMP_pressure;BME280_temperature;BME280_humidity;BME280_pressure;Samples;Min_cycle;Max_cycle;Signal;HPM_P1;HPM_P2
2023/01/10 00:01:06;;;;;;;;;;;;;;;5.82;77.65;99444.88;5014160;28;20391;-91
2023/01/10 00:03:32;;;;;;;;;;;;;;;5.82;77.84;99441.38;5014295;28;19920;-90
2023/01/10 00:09:00;;;;;;;;;;;;;;;5.82;77.96;99429.16;5015432;28;19968;-89
2023/01/10 00:14:10;;;;;;;;;;;;;;;5.83;78.25;99425.69;5015213;28;19963;-91
2023/01/10 00:16:36;;;;;;;;;;;;;;;5.77;78.15;99427.44;5015346;28;19952;-91
2023/01/10 00:19:01;;;;;;;;;;;;;;;5.76;78.13;99430.91;5015332;28;19921;-90
2023/01/10 00:21:27;;;;;;;;;;;;;;;5.83;78.19;99424.81;5015430;28;20371;-90
2023/01/10 00:23:52;;;;;;;;;;;;;;;5.82;78.00;99409.97;5015110;28;19968;-90
2023/01/10 00:26:18;;;;;;;;;;;;;;;5.77;78.22;99414.34;5014719;28;20406;-90
2023/01/10 00:28:44;;;;;;;;;;;;;;;5.79;78.10;99397.75;5014810;28;20001;-89
2023/01/10 00:31:10;;;;;;;;;;;;;;;5.88;78.15;99389.03;5014971;28;20372;-90
2023/01/10 00:33:36;;;;;;;;;;;;;;;5.67;78.56;99392.53;5014973;28;19914;-91
2023/01/10 00:36:02;;;;;;;;;;;;;;;5.80;78.49;99382.94;5015570;28;20356;-92
2023/01/10 00:38:29;;;;;;;;;;;;;;;5.86;78.05;99375.94;5013707;28;19920;-92
2023/01/10 00:40:55;;;;;;;;;;;;;;;5.87;78.19;99372.47;5013174;28;19921;-92
2023/01/10 00:49:07;;;;;;;;;;;;;;;5.77;78.65;99367.25;5015012;28;19967;-90
2023/01/10 00:51:32;;;;;;;;;;;;;;;5.96;77.78;99366.31;5014694;28;19917;-90
2023/01/10 00:53:58;;;;;;;;;;;;;;;5.66;78.70;99368.09;5013547;28;20446;-95
2023/01/10 00:56:23;;;;;;;;;;;;;;;5.50;78.91;99362.00;5014473;28;19914;-89
2023/01/10 01:01:51;;;;;;;;;;;;;;;5.54;79.59;99366.34;5014431;28;20291;-88
2023/01/10 01:04:17;;;;;;;;;;;;;;;5.57;79.44;99342.81;5014073;28;19914;-88
2023/01/10 01:06:43;;;;;;;;;;;;;;;5.69;79.03;99349.78;5012764;28;19914;-88
2023/01/10 01:09:08;;;;;;;;;;;;;;;5.77;78.31;99348.91;5014273;28;20017;-88
2023/01/10 01:11:33;;;;;;;;;;;;;;;5.52;79.47;99360.25;5013940;28;19960;-88
2023/01/10 01:13:58;;;;;;;;;;;;;;;5.48;80.13;99363.72;5014743;28;20324;-88
2023/01/10 01:16:24;;;;;;;;;;;;;;;5.45;80.34;99349.78;5013899;28;19913;-88
2023/01/10 01:21:52;;;;;;;;;;;;;;;5.45;80.63;99349.78;5014140;28;20407;-88
2023/01/10 01:24:17;;;;;;;;;;;;;;;5.32;81.22;99359.38;5013826;28;19913;-88
2023/01/10 01:26:44;;;;;;;;;;;;;;;5.58;80.64;99362.00;5014010;28;20008;-87
2023/01/10 01:29:09;;;;;;;;;;;;;;;5.53;80.19;99353.28;5013910;28;19914;-87
2023/01/10 01:31:36;;;;;;;;;;;;;;;5.56;80.47;99354.16;5014027;28;20016;-87
2023/01/10 01:34:02;;;;;;;;;;;;;;;5.40;81.04;99347.16;5014435;28;19919;-87
2023/01/10 01:36:27;;;;;;;;;;;;;;;5.04;83.03;99354.13;5014006;28;20000;-87
2023/01/10 01:38:52;;;;;;;;;;;;;;;5.29;82.69;99364.63;5013811;28;19913;-87
2023/01/10 01:44:04;;;;;;;;;;;;;;;5.51;82.04;99328.84;5013331;28;20017;-88
2023/01/10 01:46:32;;;;;;;;;;;;;;;5.62;81.28;99332.34;5012415;28;20356;-87
2023/01/10 01:48:57;;;;;;;;;;;;;;;5.74;80.82;99332.31;5014662;28;20356;-88
2023/01/10 01:51:26;;;;;;;;;;;;;;;5.78;80.60;99317.50;5014375;28;19922;-87
2023/01/10 01:53:55;;;;;;;;;;;;;;;5.80;80.53;99320.13;5015026;28;19921;-88
2023/01/10 01:56:20;;;;;;;;;;;;;;;5.88;79.87;99319.22;5013476;28;19918;-87
2023/01/10 02:01:49;;;;;;;;;;;;;;;5.81;80.34;99301.78;5013474;28;19922;-87
2023/01/10 02:04:19;;;;;;;;;;;;;;;5.91;79.93;99285.16;5013002;28;19921;-88
2023/01/10 02:06:46;;;;;;;;;;;;;;;5.92;79.92;99304.38;5013470;28;19917;-88
2023/01/10 02:09:16;;;;;;;;;;;;;;;5.79;80.16;99316.59;5013231;28;19914;-88
2023/01/10 02:11:41;;;;;;;;;;;;;;;5.70;80.21;99304.44;5013366;28;19913;-88
2023/01/10 02:14:09;;;;;;;;;;;;;;;5.81;79.79;99275.63;5012100;28;19920;-87
2023/01/10 02:16:34;;;;;;;;;;;;;;;5.84;79.46;99256.41;5012950;28;19920;-88
2023/01/10 02:18:59;;;;;;;;;;;;;;;5.91;79.56;99251.13;5013479;28;20311;-87
2023/01/10 02:21:31;;;;;;;;;;;;;;;5.62;79.64;99266.91;5013112;28;19921;-88
2023/01/10 02:24:11;;;;;;;;;;;;;;;5.14;81.84;99256.53;5013218;28;19917;-87
2023/01/10 02:26:55;;;;;;;;;;;;;;;5.37;81.54;99248.63;5013455;28;20060;-87
2023/01/10 02:29:38;;;;;;;;;;;;;;;5.54;80.96;99238.13;5012908;28;19913;-86
2023/01/10 02:32:13;;;;;;;;;;;;;;;5.42;80.70;99247.75;5013602;28;19924;-87
2023/01/10 02:34:38;;;;;;;;;;;;;;;5.01;82.88;99255.63;5011615;28;19913;-88
2023/01/10 02:37:18;;;;;;;;;;;;;;;5.28;82.47;99245.16;5011762;28;19914;-87
2023/01/10 02:39:55;;;;;;;;;;;;;;;5.50;81.21;99217.22;5012654;28;20304;-89
2023/01/10 02:42:27;;;;;;;;;;;;;;;5.60;80.25;99213.72;5013085;28;19913;-89
2023/01/10 02:45:05;;;;;;;;;;;;;;;5.62;80.36;99214.56;5012466;28;19910;-89
2023/01/10 02:47:36;;;;;;;;;;;;;;;5.57;80.66;99239.88;5013129;28;19921;-88
2023/01/10 02:50:21;;;;;;;;;;;;;;;5.88;79.58;99247.66;5012944;28;19909;-88
2023/01/10 02:52:46;;;;;;;;;;;;;;;5.76;79.73;99245.09;5012649;28;19920;-88
2023/01/10 02:55:12;;;;;;;;;;;;;;;5.74;79.98;99240.72;5012954;28;19910;-88
2023/01/10 02:57:37;;;;;;;;;;;;;;;5.77;79.73;99245.09;5012907;28;19968;-88
2023/01/10 03:00:03;;;;;;;;;;;;;;;5.73;79.57;99251.19;5012414;28;19914;-87
2023/01/10 03:02:28;;;;;;;;;;;;;;;5.53;80.17;99238.16;5013332;28;20032;-88
2023/01/10 03:05:02;;;;;;;;;;;;;;;5.60;80.31;99228.56;5016331;28;19920;-86
2023/01/10 03:07:33;;;;;;;;;;;;;;;5.54;80.85;99222.44;5017134;28;19921;-85
2023/01/10 03:10:13;;;;;;;;;;;;;;;5.77;80.19;99231.13;5016524;28;20426;-86
2023/01/10 03:12:45;;;;;;;;;;;;;;;5.82;79.66;99217.13;5016312;28;19920;-86
2023/01/10 03:15:13;;;;;;;;;;;;;;;5.93;79.33;99211.84;5016648;28;19913;-86
2023/01/10 03:17:39;;;;;;;;;;;;;;;5.91;79.30;99204.00;5016757;28;19913;-86
2023/01/10 03:20:05;;;;;;;;;;;;;;;5.89;79.44;99199.69;5015977;28;19953;-87
2023/01/10 03:22:34;;;;;;;;;;;;;;;5.52;80.89;99202.41;5016521;28;20360;-87
2023/01/10 03:25:00;;;;;;;;;;;;;;;5.50;81.98;99212.88;5016244;28;20298;-87
2023/01/10 03:27:29;;;;;;;;;;;;;;;5.43;82.61;99221.59;5016291;28;19966;-87
2023/01/10 03:30:05;;;;;;;;;;;;;;;5.53;82.00;99201.50;5016397;28;19913;-87
2023/01/10 03:35:43;;;;;;;;;;;;;;;5.67;81.19;99194.53;5013479;28;19924;-88
2023/01/10 03:38:10;;;;;;;;;;;;;;;5.67;80.79;99199.75;5016420;28;19917;-88
2023/01/10 03:41:05;;;;;;;;;;;;;;;5.45;81.26;99198.91;5016091;28;19914;-87
2023/01/10 03:46:38;;;;;;;;;;;;;;;5.46;81.93;99200.66;5015506;28;19924;-89
2023/01/10 03:49:05;;;;;;;;;;;;;;;5.70;81.38;99196.22;5015930;28;20012;-89
2023/01/10 03:54:33;;;;;;;;;;;;;;;5.82;80.14;99182.25;5016325;28;20000;-90
2023/01/10 03:56:58;;;;;;;;;;;;;;;5.83;80.30;99176.16;5015449;28;20299;-89
2023/01/10 03:59:28;;;;;;;;;;;;;;;5.67;80.03;99186.66;5014970;28;19914;-89
2023/01/10 04:01:53;;;;;;;;;;;;;;;5.68;80.70;99182.28;5015690;28;20000;-89
2023/01/10 04:04:19;;;;;;;;;;;;;;;5.74;79.94;99145.63;5015443;28;20419;-88
2023/01/10 04:06:44;;;;;;;;;;;;;;;5.79;79.97;99124.66;5015468;28;19928;-88
2023/01/10 04:09:10;;;;;;;;;;;;;;;5.80;79.63;99127.28;5015524;28;20058;-89
2023/01/10 04:11:35;;;;;;;;;;;;;;;5.81;79.83;99141.22;5015097;28;20281;-88
2023/01/10 04:14:01;;;;;;;;;;;;;;;5.65;80.66;99133.44;5015283;28;19913;-89
2023/01/10 04:16:26;;;;;;;;;;;;;;;5.92;79.73;99142.06;5015840;28;19922;-87
2023/01/10 04:21:54;;;;;;;;;;;;;;;6.00;79.07;99158.63;5015257;28;20133;-86
2023/01/10 04:24:19;;;;;;;;;;;;;;;5.62;80.17;99174.47;5014216;28;20060;-88
2023/01/10 04:26:45;;;;;;;;;;;;;;;5.55;80.98;99164.03;5015111;28;20364;-89
2023/01/10 04:29:10;;;;;;;;;;;;;;;5.61;81.06;99139.59;5013863;28;19913;-88
2023/01/10 04:35:04;;;;;;;;;;;;;;;5.79;80.42;99140.38;5013979;28;20746;-87
2023/01/10 04:37:30;;;;;;;;;;;;;;;5.92;80.17;99142.06;5013614;28;19918;-88
2023/01/10 04:42:57;;;;;;;;;;;;;;;5.81;80.27;99141.22;5015009;28;19916;-87
2023/01/10 04:45:23;;;;;;;;;;;;;;;5.91;79.91;99140.31;5014972;28;19914;-87
2023/01/10 04:47:50;;;;;;;;;;;;;;;5.97;79.66;99155.16;5013846;28;20007;-87
2023/01/10 04:53:18;;;;;;;;;;;;;;;5.91;79.92;99151.66;5014692;28;19960;-85
2023/01/10 04:55:44;;;;;;;;;;;;;;;5.97;79.42;99142.94;5014310;28;19917;-83
2023/01/10 04:58:09;;;;;;;;;;;;;;;6.02;79.74;99137.69;5014426;28;20004;-85
2023/01/10 05:03:37;;;;;;;;;;;;;;;6.14;79.28;99128.91;5014480;28;19964;-87
2023/01/10 05:06:03;;;;;;;;;;;;;;;6.09;79.30;99129.78;5012703;28;20542;-86
2023/01/10 05:08:28;;;;;;;;;;;;;;;6.00;79.35;99134.22;5014918;28;19923;-89
2023/01/10 05:10:53;;;;;;;;;;;;;;;6.06;79.65;99134.19;5017960;28;19936;-84
2023/01/10 05:13:19;;;;;;;;;;;;;;;6.15;79.25;99133.22;5014365;28;20091;-85
2023/01/10 05:15:44;;;;;;;;;;;;;;;6.08;79.31;99128.03;5014321;28;19914;-86
2023/01/10 05:18:09;;;;;;;;;;;;;;;6.16;79.52;99125.38;5014449;28;19975;-85
2023/01/10 05:20:35;;;;;;;;;;;;;;;6.15;79.55;99128.00;5014200;28;19913;-90
2023/01/10 05:23:00;;;;;;;;;;;;;;;6.19;79.64;99127.09;5014126;28;19913;-89
2023/01/10 05:28:28;;;;;;;;;;;;;;;6.04;79.58;99114.97;5013912;28;20016;-89
2023/01/10 05:30:53;;;;;;;;;;;;;;;5.94;80.68;99123.75;5013533;28;19970;-93
2023/01/10 05:33:19;;;;;;;;;;;;;;;5.87;81.16;99113.31;5013761;28;19963;-89
2023/01/10 05:35:44;;;;;;;;;;;;;;;5.92;81.18;99097.56;5013690;28;20351;-88
2023/01/10 05:38:09;;;;;;;;;;;;;;;5.91;81.46;99099.28;5014233;28;19918;-90
2023/01/10 05:40:34;;;;;;;;;;;;;;;5.76;81.99;99094.13;5013739;28;19920;-88
2023/01/10 05:43:01;;;;;;;;;;;;;;;5.72;83.17;99087.19;5013862;28;19914;-90
2023/01/10 05:45:27;;;;;;;;;;;;;;;5.83;82.70;99082.78;5013953;28;19917;-88
2023/01/10 05:47:52;;;;;;;;;;;;;;;5.86;82.59;99084.50;5013515;28;20333;-89
2023/01/10 05:53:21;;;;;;;;;;;;;;;5.82;83.58;99085.41;5013504;28;20394;-89
2023/01/10 05:55:57;;;;;;;;;;;;;;;5.86;83.08;99077.53;5013253;28;20406;-89
2023/01/10 05:58:22;;;;;;;;;;;;;;;5.91;82.81;99083.59;5013494;28;19936;-88
2023/01/10 06:00:48;;;;;;;;;;;;;;;5.91;83.00;99065.25;5013166;28;20360;-89
2023/01/10 06:03:13;;;;;;;;;;;;;;;5.86;82.77;99080.13;5012879;28;20376;-88
2023/01/10 06:05:39;;;;;;;;;;;;;;;5.96;82.95;99085.31;5012266;28;20012;-87
2023/01/10 06:08:04;;;;;;;;;;;;;;;6.05;82.54;99101.00;5013739;28;19971;-95
2023/01/10 06:10:29;;;;;;;;;;;;;;;5.96;81.99;99082.69;5012403;28;19914;-88
2023/01/10 06:12:55;;;;;;;;;;;;;;;5.98;82.54;99080.97;5016039;28;20004;-88
2023/01/10 06:15:20;;;;;;;;;;;;;;;5.86;82.97;99084.50;5017518;28;20363;-89
2023/01/10 06:17:45;;;;;;;;;;;;;;;5.74;83.76;99090.66;5014295;28;19937;-89
2023/01/10 06:20:11;;;;;;;;;;;;;;;5.40;85.47;99090.81;5013565;28;20383;-86
2023/01/10 06:22:38;;;;;;;;;;;;;;;5.66;84.70;99093.31;5012906;28;19968;-87
2023/01/10 06:25:04;;;;;;;;;;;;;;;5.55;85.26;99089.91;5013609;28;19913;-86
2023/01/10 06:27:29;;;;;;;;;;;;;;;5.41;85.87;99084.72;5012128;28;19967;-87
2023/01/10 06:29:55;;;;;;;;;;;;;;;5.58;86.31;99092.50;5002693;28;20053;-87
2023/01/10 06:32:20;;;;;;;;;;;;;;;5.74;85.24;99090.66;4994108;28;19944;-87
2023/01/10 06:34:46;;;;;;;;;;;;;;;5.65;85.72;99083.72;5001351;28;20372;-85
2023/01/10 06:37:11;;;;;;;;;;;;;;;5.51;86.18;99080.31;5001086;28;19940;-85
2023/01/10 06:39:38;;;;;;;;;;;;;;;5.29;88.05;99087.38;4990540;28;20478;-85
2023/01/10 06:42:03;;;;;;;;;;;;;;;5.49;87.41;99084.69;4993871;28;19921;-86
2023/01/10 06:44:29;;;;;;;;;;;;;;;5.45;86.80;99083.81;4998362;28;19913;-84
2023/01/10 06:46:54;;;;;;;;;;;;;;;5.32;88.57;99082.13;5003652;28;19929;-86
2023/01/10 06:49:19;;;;;;;;;;;;;;;5.43;86.95;99080.34;4995416;28;20341;-85
2023/01/10 06:51:44;;;;;;;;;;;;;;;5.45;87.40;99094.28;4998041;28;19921;-85
2023/01/10 06:54:10;;;;;;;;;;;;;;;5.44;87.46;99096.91;4988849;28;19925;-86
2023/01/10 06:56:35;;;;;;;;;;;;;;;5.34;87.35;99099.53;5002305;28;20357;-87
2023/01/10 06:59:00;;;;;;;;;;;;;;;5.20;88.22;99076.09;5002470;28;19913;-86
2023/01/10 07:01:26;;;;;;;;;;;;;;;5.14;88.54;99069.97;4995400;28;19924;-86
2023/01/10 07:03:52;;;;;;;;;;;;;;;5.28;87.95;99070.81;5002411;28;20372;-88
2023/01/10 07:06:17;;;;;;;;;;;;;;;4.81;89.76;99064.84;4988898;28;19996;-87
2023/01/10 07:08:44;;;;;;;;;;;;;;;5.05;90.12;99060.44;4993733;28;19913;-87
2023/01/10 07:11:10;;;;;;;;;;;;;;;5.24;89.47;99066.47;4999474;28;19924;-88
2023/01/10 07:13:36;;;;;;;;;;;;;;;5.29;88.48;99064.69;4991026;28;19914;-87
2023/01/10 07:16:02;;;;;;;;;;;;;;;5.42;87.95;99075.13;4991342;28;19977;-88
2023/01/10 07:18:27;;;;;;;;;;;;;;;5.20;87.70;99057.78;4991981;28;20307;-87
2023/01/10 07:20:54;;;;;;;;;;;;;;;4.88;89.86;99056.97;4993028;28;19913;-86
2023/01/10 07:23:19;;;;;;;;;;;;;;;4.88;90.43;99059.59;4992743;28;19913;-86
2023/01/10 07:25:45;;;;;;;;;;;;;;;4.86;91.03;99063.97;4992898;28;20372;-86
2023/01/10 07:28:10;;;;;;;;;;;;;;;5.03;90.65;99059.56;4993038;28;20000;-86
2023/01/10 07:30:36;;;;;;;;;;;;;;;5.18;89.53;99041.22;4992748;28;20052;-86
2023/01/10 07:33:02;;;;;;;;;;;;;;;4.92;90.24;99032.59;4992813;28;19917;-85
2023/01/10 07:35:28;;;;;;;;;;;;;;;4.95;90.83;99036.06;4993304;28;19917;-86
2023/01/10 07:37:56;;;;;;;;;;;;;;;4.79;91.60;99042.22;4992596;28;20028;-87
2023/01/10 07:40:21;;;;;;;;;;;;;;;4.52;92.25;99032.66;4993001;28;19960;-86
2023/01/10 07:42:47;;;;;;;;;;;;;;;4.73;94.31;99030.00;4992541;28;19914;-86
2023/01/10 07:45:12;;;;;;;;;;;;;;;4.86;93.38;99020.41;4992635;28;20360;-86
2023/01/10 07:47:37;;;;;;;;;;;;;;;4.83;92.85;99023.00;4992915;28;20009;-87
2023/01/10 07:50:03;;;;;;;;;;;;;;;5.07;93.14;99023.84;4994139;28;20379;-87
2023/01/10 07:52:28;;;;;;;;;;;;;;;5.28;92.17;99023.72;4995976;28;19918;-86
2023/01/10 07:54:54;;;;;;;;;;;;;;;5.41;90.71;99018.44;4996404;28;19914;-85
2023/01/10 07:57:19;;;;;;;;;;;;;;;5.03;92.20;99009.88;4995915;28;19918;-85
2023/01/10 07:59:44;;;;;;;;;;;;;;;5.24;92.03;99005.47;4995882;28;19921;-86
2023/01/10 08:02:10;;;;;;;;;;;;;;;4.71;94.66;98991.69;4996251;28;19937;-86
2023/01/10 08:07:38;;;;;;;;;;;;;;;5.01;94.35;98975.06;4995897;28;19921;-88
2023/01/10 08:10:04;;;;;;;;;;;;;;;5.18;93.97;98969.75;4995820;28;19910;-88
2023/01/10 08:12:29;;;;;;;;;;;;;;;5.41;92.68;98976.59;4995969;28;19968;-87
2023/01/10 08:14:54;;;;;;;;;;;;;;;5.26;92.27;98983.66;4996137;28;20364;-88
2023/01/10 08:17:20;;;;;;;;;;;;;;;5.31;92.48;98979.25;4995517;28;19925;-86
2023/01/10 08:19:45;;;;;;;;;;;;;;;5.16;92.57;98980.22;4995483;28;19920;-87
2023/01/10 08:22:10;;;;;;;;;;;;;;;5.23;92.58;98996.72;4994184;28;19920;-86
2023/01/10 08:24:36;;;;;;;;;;;;;;;5.15;92.84;98991.53;4995663;28;19920;-86
2023/01/10 08:27:01;;;;;;;;;;;;;;;5.29;92.75;98994.09;5010803;28;19956;-86
2023/01/10 08:29:27;;;;;;;;;;;;;;;5.31;92.74;98999.31;4996340;28;19918;-84
2023/01/10 08:31:52;;;;;;;;;;;;;;;5.33;93.09;98987.97;4995131;28;19914;-87
2023/01/10 08:34:17;;;;;;;;;;;;;;;5.30;92.67;98982.75;4995959;28;19914;-84
2023/01/10 08:36:43;;;;;;;;;;;;;;;5.05;94.13;98979.41;4995529;28;20016;-85
2023/01/10 08:39:08;;;;;;;;;;;;;;;4.87;95.70;98980.34;4995742;28;19992;-85
2023/01/10 08:41:33;;;;;;;;;;;;;;;4.92;96.09;98975.09;4994117;28;20328;-84
2023/01/10 08:43:59;;;;;;;;;;;;;;;5.01;95.76;98970.69;4995416;28;19914;-84
2023/01/10 08:46:25;;;;;;;;;;;;;;;4.96;96.38;98967.22;4995298;28;20004;-85
2023/01/10 08:48:50;;;;;;;;;;;;;;;5.29;95.07;98964.47;4995445;28;19918;-85
2023/01/10 08:51:16;;;;;;;;;;;;;;;5.05;94.88;98948.03;4994882;28;20299;-85
2023/01/10 08:53:41;;;;;;;;;;;;;;;5.06;96.36;98944.53;4994706;28;19914;-85
2023/01/10 08:56:07;;;;;;;;;;;;;;;5.19;95.99;98948.81;4994931;28;20392;-85
2023/01/10 08:58:32;;;;;;;;;;;;;;;5.28;95.61;98949.63;4995051;28;19914;-86
2023/01/10 09:00:58;;;;;;;;;;;;;;;5.42;94.72;98949.56;4994615;28;19996;-86
2023/01/10 09:03:23;;;;;;;;;;;;;;;5.62;93.92;98959.91;4994956;28;19920;-86
2023/01/10 09:05:49;;;;;;;;;;;;;;;5.11;95.10;98960.19;4995184;28;20348;-86
2023/01/10 09:08:14;;;;;;;;;;;;;;;5.19;96.23;98955.81;4994823;28;19921;-86
2023/01/10 09:10:40;;;;;;;;;;;;;;;5.25;96.78;98941.81;4994828;28;19913;-85
2023/01/10 09:13:06;;;;;;;;;;;;;;;5.27;95.95;98922.63;5010259;28;19917;-85
2023/01/10 09:15:32;;;;;;;;;;;;;;;5.54;94.62;98920.72;4994574;28;19957;-86
2023/01/10 09:18:03;;;;;;;;;;;;;;;5.68;94.03;98926.69;4994228;28;20435;-86
2023/01/10 09:20:29;;;;;;;;;;;;;;;5.49;93.57;98919.88;4994686;28;19921;-87
2023/01/10 09:22:55;;;;;;;;;;;;;;;5.56;94.14;98909.38;4994349;28;19918;-87
2023/01/10 09:25:21;;;;;;;;;;;;;;;5.30;94.62;98903.41;4994754;28;19921;-88
2023/01/10 09:27:46;;;;;;;;;;;;;;;5.17;96.66;98887.84;4994666;28;19914;-87
2023/01/10 09:30:12;;;;;;;;;;;;;;;5.37;95.01;98898.13;4994804;28;19914;-87
2023/01/10 09:32:37;;;;;;;;;;;;;;;5.14;95.60;98889.56;5010101;28;19914;-87
2023/01/10 09:35:03;;;;;;;;;;;;;;;5.18;96.17;98886.06;4994287;28;19925;-87
2023/01/10 09:37:28;;;;;;;;;;;;;;;5.34;97.08;98874.63;4994227;28;20284;-86
2023/01/10 09:39:53;;;;;;;;;;;;;;;5.44;96.89;98870.22;4993961;28;19918;-86
2023/01/10 09:42:19;;;;;;;;;;;;;;;5.21;97.30;98865.13;4993742;28;19917;-85
2023/01/10 09:45:12;;;;;;;;;;;;;;;5.07;98.42;98849.53;4994077;28;20335;-89
2023/01/10 09:47:58;;;;;;;;;;;;;;;5.11;98.76;98843.44;4993967;28;19913;-86
2023/01/10 09:50:42;;;;;;;;;;;;;;;5.19;98.58;98846.00;4993951;28;19914;-85
2023/01/10 09:53:17;;;;;;;;;;;;;;;5.67;96.86;98846.47;5009220;28;20004;-87
2023/01/10 09:55:51;;;;;;;;;;;;;;;5.28;96.89;98834.56;4992377;28;20045;-87
2023/01/10 09:58:18;;;;;;;;;;;;;;;5.50;97.79;98830.94;4994250;28;19914;-87
2023/01/10 10:00:49;;;;;;;;;;;;;;;5.41;96.41;98835.34;4993568;28;19914;-86
2023/01/10 10:03:22;;;;;;;;;;;;;;;5.58;97.02;98828.25;4995168;28;19943;-86
2023/01/10 10:05:48;;;;;;;;;;;;;;;5.49;96.68;98830.94;4993314;28;19988;-86
2023/01/10 10:08:16;;;;;;;;;;;;;;;5.76;96.09;98827.19;4993576;28;20004;-86
2023/01/10 10:10:54;;;;;;;;;;;;;;;5.85;94.60;98816.63;4992220;28;20328;-86
2023/01/10 10:16:22;;;;;;;;;;;;;;;5.69;94.74;98820.28;4993759;28;19921;-87
2023/01/10 10:18:47;;;;;;;;;;;;;;;5.70;94.64;98815.06;5006810;28;19914;-87
2023/01/10 10:21:19;;;;;;;;;;;;;;;5.89;93.42;98801.78;5008548;28;20015;-88
2023/01/10 10:23:44;;;;;;;;;;;;;;;5.69;93.50;98783.66;5007072;28;19929;-88
2023/01/10 10:26:16;;;;;;;;;;;;;;;5.57;94.36;98772.41;4993885;28;19940;-87
2023/01/10 10:28:49;;;;;;;;;;;;;;;5.60;94.63;98774.16;5002127;28;19919;-87
2023/01/10 10:37:35;;;;;;;;;;;;;;;5.38;95.28;98757.78;5010347;28;19980;-87
2023/01/10 10:40:06;;;;;;;;;;;;;;;5.60;95.96;98749.75;5011372;28;19918;-88
2023/01/10 10:42:42;;;;;;;;;;;;;;;5.91;93.74;98742.41;5013263;28;20000;-88
2023/01/10 10:45:28;;;;;;;;;;;;;;;5.82;93.99;98732.06;5013210;28;19913;-88
2023/01/10 10:51:13;;;;;;;;;;;;;;;5.98;92.35;98725.81;5012732;28;19916;-88
2023/01/10 10:53:38;;;;;;;;;;;;;;;5.88;92.91;98721.50;5012656;28;19965;-91
2023/01/10 10:56:05;;;;;;;;;;;;;;;6.06;92.39;98723.09;5013020;28;19941;-89
2023/01/10 10:58:31;;;;;;;;;;;;;;;6.18;90.95;98733.41;5012549;28;19917;-91
2023/01/10 11:00:57;;;;;;;;;;;;;;;6.12;92.07;98728.25;5012836;28;19914;-91
2023/01/10 11:03:22;;;;;;;;;;;;;;;6.12;91.69;98719.50;5011389;28;19929;-89
2023/01/10 11:05:48;;;;;;;;;;;;;;;6.21;91.12;98714.16;5012854;28;19920;-88
2023/01/10 11:08:15;;;;;;;;;;;;;;;6.06;91.66;98710.00;5012710;28;19921;-90
2023/01/10 11:13:46;;;;;;;;;;;;;;;6.26;90.46;98686.16;5012875;28;19917;-87
2023/01/10 11:16:22;;;;;;;;;;;;;;;6.32;90.41;98688.72;5012369;28;19913;-87
2023/01/10 11:19:07;;;;;;;;;;;;;;;6.20;89.71;98681.03;5010904;28;19913;-87
2023/01/10 11:21:32;;;;;;;;;;;;;;;6.39;89.98;98677.22;5012096;28;19921;-88
2023/01/10 11:23:58;;;;;;;;;;;;;;;6.62;89.16;98676.91;5011167;28;19914;-89
2023/01/10 11:26:25;;;;;;;;;;;;;;;6.68;88.75;98685.56;5016138;28;19917;-88
2023/01/10 11:28:51;;;;;;;;;;;;;;;6.61;88.54;98672.56;5014776;28;19972;-89
2023/01/10 11:31:25;;;;;;;;;;;;;;;6.71;88.25;98664.56;5014889;28;20379;-89
2023/01/10 11:33:50;;;;;;;;;;;;;;;6.93;86.82;98658.06;5016142;28;19913;-89
2023/01/10 11:36:15;;;;;;;;;;;;;;;6.85;87.12;98659.09;5014547;28;19967;-89
2023/01/10 11:38:41;;;;;;;;;;;;;;;6.90;87.13;98663.34;5015028;28;19980;-88
2023/01/10 11:41:32;;;;;;;;;;;;;;;6.77;87.63;98672.31;5016052;28;19913;-88
2023/01/10 11:44:17;;;;;;;;;;;;;;;6.85;87.64;98673.06;5014762;28;20033;-88
2023/01/10 11:46:46;;;;;;;;;;;;;;;6.71;88.23;98654.94;5016302;28;19909;-87
2023/01/10 11:49:18;;;;;;;;;;;;;;;6.77;87.89;98653.97;5015801;28;19913;-87
2023/01/10 11:51:48;;;;;;;;;;;;;;;6.85;87.62;98657.31;5016192;28;19960;-88
2023/01/10 11:54:20;;;;;;;;;;;;;;;6.88;87.98;98659.03;5015555;28;20376;-86
2023/01/10 11:56:56;;;;;;;;;;;;;;;6.95;87.23;98651.06;5015616;28;19916;-87
2023/01/10 11:59:22;;;;;;;;;;;;;;;6.96;87.68;98649.28;5015689;28;19917;-87
2023/01/10 12:01:54;;;;;;;;;;;;;;;7.07;87.30;98656.97;5015174;28;20429;-86
2023/01/10 12:04:20;;;;;;;;;;;;;;;7.19;86.29;98653.28;5015496;28;19987;-88
2023/01/10 12:06:47;;;;;;;;;;;;;;;7.17;86.70;98659.41;5015465;28;19967;-90
2023/01/10 12:09:31;;;;;;;;;;;;;;;7.10;87.42;98659.53;5015045;28;19914;-88
2023/01/10 12:12:14;;;;;;;;;;;;;;;7.10;87.21;98649.91;5015502;28;19957;-88
2023/01/10 12:14:39;;;;;;;;;;;;;;;7.30;87.21;98633.81;5014104;28;19910;-89
2023/01/10 12:17:05;;;;;;;;;;;;;;;7.35;86.48;98639.84;5015628;28;19964;-88
2023/01/10 12:19:30;;;;;;;;;;;;;;;7.37;85.94;98642.44;5014788;28;19951;-88
2023/01/10 12:22:01;;;;;;;;;;;;;;;7.39;85.75;98640.66;5014895;28;19913;-87
2023/01/10 12:24:33;;;;;;;;;;;;;;;7.36;86.30;98640.69;5014885;28;19917;-88
2023/01/10 12:27:00;;;;;;;;;;;;;;;7.14;87.17;98648.09;5014448;28;20368;-87
2023/01/10 12:29:33;;;;;;;;;;;;;;;7.32;86.69;98646.88;5015155;28;19920;-87
2023/01/10 12:35:03;;;;;;;;;;;;;;;7.30;86.59;98656.56;5014580;28;19917;-88
2023/01/10 12:37:41;;;;;;;;;;;;;;;7.26;86.87;98675.84;5015196;28;19925;-86
2023/01/10 12:40:13;;;;;;;;;;;;;;;7.09;86.99;98687.53;5014840;28;19914;-88
2023/01/10 12:45:28;;;;;;;;;;;;;;;6.94;88.38;98687.78;5014779;28;20299;-87
2023/01/10 12:48:05;;;;;;;;;;;;;;;6.81;89.18;98674.88;5014529;28;19919;-91
2023/01/10 12:50:35;;;;;;;;;;;;;;;7.05;88.77;98672.72;5014748;28;20394;-86
2023/01/10 12:56:06;;;;;;;;;;;;;;;7.49;86.56;98643.94;5014581;28;20339;-88
2023/01/10 12:58:43;;;;;;;;;;;;;;;7.20;86.37;98619.16;5014489;28;19918;-88
2023/01/10 13:01:14;;;;;;;;;;;;;;;7.25;86.98;98595.44;5014534;28;19940;-88
2023/01/10 13:03:39;;;;;;;;;;;;;;;7.10;87.29;98581.72;5014435;28;19917;-87
2023/01/10 13:06:05;;;;;;;;;;;;;;;7.04;87.55;98594.09;5014376;28;20283;-88
2023/01/10 13:08:34;;;;;;;;;;;;;;;7.15;88.44;98605.22;5014189;28;20392;-88
2023/01/10 13:11:00;;;;;;;;;;;;;;;7.15;88.66;98634.97;5013730;28;19928;-87
2023/01/10 13:13:49;;;;;;;;;;;;;;;7.12;89.24;98655.13;5014080;28;19913;-88
2023/01/10 13:16:30;;;;;;;;;;;;;;;7.13;89.43;98676.06;5013043;28;19922;-89
2023/01/10 13:19:04;;;;;;;;;;;;;;;7.23;89.52;98655.81;5013776;28;19913;-90
2023/01/10 13:21:30;;;;;;;;;;;;;;;7.04;90.35;98625.56;5013527;28;19914;-86
2023/01/10 13:24:03;;;;;;;;;;;;;;;6.94;90.89;98598.63;5013751;28;19913;-88
2023/01/10 13:27:04;;;;;;;;;;;;;;;7.11;91.66;98599.19;5013948;28;19909;-87
2023/01/10 13:29:36;;;;;;;;;;;;;;;6.74;91.97;98612.09;4992034;28;19914;-88
2023/01/10 13:32:14;;;;;;;;;;;;;;;7.10;91.41;98621.06;5010539;28;20315;-89
2023/01/10 13:34:39;;;;;;;;;;;;;;;6.79;92.68;98608.47;5012186;28;19917;-88
2023/01/10 13:37:13;;;;;;;;;;;;;;;6.85;92.04;98618.00;5014072;28;19924;-88
2023/01/10 13:39:49;;;;;;;;;;;;;;;6.69;93.53;98637.50;5013828;28;19921;-88
2023/01/10 13:45:12;;;;;;;;;;;;;;;7.14;90.83;98633.22;5013235;28;19921;-86
2023/01/10 13:47:42;;;;;;;;;;;;;;;7.27;90.57;98636.47;5012942;28;19914;-89
2023/01/10 13:50:32;;;;;;;;;;;;;;;7.34;90.52;98672.22;5014032;28;19913;-88
2023/01/10 13:53:01;;;;;;;;;;;;;;;7.56;89.68;98679.69;5013523;28;19914;-85
2023/01/10 14:04:25;;;;;;;;;;;;;;;7.41;87.80;98627.50;5013264;28;20028;-87
2023/01/10 14:07:11;;;;;;;;;;;;;;;7.44;87.41;98628.28;5013469;28;19909;-87
2023/01/10 14:09:41;;;;;;;;;;;;;;;7.60;87.79;98641.13;5013119;28;19913;-85
2023/01/10 14:12:14;;;;;;;;;;;;;;;7.67;86.33;98633.09;5013323;28;19959;-86
2023/01/10 14:14:40;;;;;;;;;;;;;;;7.63;87.32;98654.19;5013100;28;19914;-87
2023/01/10 14:17:08;;;;;;;;;;;;;;;7.70;87.34;98668.91;5013056;28;20000;-87
2023/01/10 14:19:34;;;;;;;;;;;;;;;7.77;87.28;98674.91;5013054;28;19914;-88
2023/01/10 14:22:00;;;;;;;;;;;;;;;7.81;86.39;98663.47;5013513;28;20265;-88
2023/01/10 14:24:27;;;;;;;;;;;;;;;7.89;86.27;98658.91;5013162;28;19921;-87
2023/01/10 14:26:54;;;;;;;;;;;;;;;7.83;86.81;98662.53;5011549;28;19914;-86
2023/01/10 14:29:20;;;;;;;;;;;;;;;7.92;86.18;98673.75;5013173;28;19984;-87
2023/01/10 14:31:46;;;;;;;;;;;;;;;7.93;86.24;98681.59;5013063;28;20379;-87
2023/01/10 14:34:18;;;;;;;;;;;;;;;7.96;85.67;98688.53;5013120;28;19997;-88
2023/01/10 14:37:02;;;;;;;;;;;;;;;7.93;85.87;98685.97;5013231;28;19918;-88